Time;durP1;ratioP1;P1;durP2;ratioP2;P2;SDS_P1;SDS_P2;PMS_P1;PMS_P2;Temp;Humidity;BMP_temperature;BMP_pressure;BME280_temperature;BME280_humidity;BME280_pressure;Samples;Min_cycle;Max_cycle;Signal;HPM_P1;HPM_P2
2022/07/21 00:01:06;;;;;;;6.70;6.20;;;;;;;;;;5031041;28;20884;-79
2022/07/21 00:03:31;;;;;;;6.03;5.50;;;;;;;;;;5031651;28;20435;-81
2022/07/21 00:05:58;;;;;;;7.80;5.80;;;;;;;;;;5030367;28;21749;-81
2022/07/21 00:08:24;;;;;;;6.70;6.10;;;;;;;;;;5030866;28;20200;-80
2022/07/21 00:10:50;;;;;;;9.27;6.10;;;;;;;;;;5032409;28;20919;-81
2022/07/21 00:13:16;;;;;;;7.47;5.80;;;;;;;;;;5030547;28;20439;-81
2022/07/21 00:15:42;;;;;;;8.07;7.23;;;;;;;;;;5030264;28;20451;-82
2022/07/21 00:18:08;;;;;;;6.37;6.00;;;;;;;;;;5030490;28;20440;-82
2022/07/21 00:20:34;;;;;;;13.43;7.60;;;;;;;;;;5031250;28;20443;-80
2022/07/21 00:23:00;;;;;;;8.97;7.27;;;;;;;;;;5029600;28;20439;-79
2022/07/21 00:25:26;;;;;;;6.37;6.07;;;;;;;;;;5030385;28;21442;-77
2022/07/21 00:27:53;;;;;;;6.70;6.20;;;;;;;;;;5029402;28;20495;-78
2022/07/21 00:30:19;;;;;;;7.00;6.50;;;;;;;;;;5031214;28;20431;-79
2022/07/21 00:32:45;;;;;;;6.50;6.10;;;;;;;;;;5029183;28;20458;-75
2022/07/21 00:35:12;;;;;;;7.77;7.03;;;;;;;;;;5030476;28;20927;-79
2022/07/21 00:37:38;;;;;;;7.07;6.40;;;;;;;;;;5031084;28;20435;-82
2022/07/21 00:40:05;;;;;;;6.73;6.33;;;;;;;;;;5030786;28;20450;-81
2022/07/21 00:42:32;;;;;;;6.40;5.90;;;;;;;;;;5029912;28;20462;-81
2022/07/21 00:44:59;;;;;;;6.83;6.33;;;;;;;;;;5030960;28;20485;-77
2022/07/21 00:47:26;;;;;;;6.20;5.80;;;;;;;;;;5030730;28;20443;-81
2022/07/21 00:49:52;;;;;;;7.97;6.67;;;;;;;;;;5029935;28;20420;-75
2022/07/21 00:52:19;;;;;;;7.10;6.50;;;;;;;;;;5029875;28;20868;-82
2022/07/21 00:54:45;;;;;;;6.33;5.83;;;;;;;;;;5029684;28;20475;-82
2022/07/21 00:57:12;;;;;;;6.53;6.00;;;;;;;;;;5030153;28;20431;-79
2022/07/21 00:59:38;;;;;;;9.80;6.40;;;;;;;;;;5029225;28;20522;-79
2022/07/21 01:02:04;;;;;;;7.10;6.40;;;;;;;;;;5030283;28;20463;-81
2022/07/21 01:04:30;;;;;;;13.43;7.03;;;;;;;;;;5030387;28;20435;-80
2022/07/21 01:06:57;;;;;;;8.20;6.43;;;;;;;;;;5029924;28;20482;-81
2022/07/21 01:09:23;;;;;;;6.57;6.07;;;;;;;;;;5029024;28;20436;-80
2022/07/21 01:11:49;;;;;;;7.60;6.87;;;;;;;;;;5030182;28;20432;-83
2022/07/21 01:14:16;;;;;;;7.43;6.70;;;;;;;;;;5030848;28;20415;-82
2022/07/21 01:16:43;;;;;;;7.20;6.60;;;;;;;;;;5029279;28;20438;-78
2022/07/21 01:19:10;;;;;;;7.40;6.90;;;;;;;;;;5028031;28;20512;-77
2022/07/21 01:21:37;;;;;;;8.30;7.60;;;;;;;;;;5029476;28;20810;-76
2022/07/21 01:24:03;;;;;;;9.50;7.80;;;;;;;;;;5029306;28;20439;-81
2022/07/21 01:26:29;;;;;;;8.97;7.40;;;;;;;;;;5029358;28;20998;-74
2022/07/21 01:28:56;;;;;;;8.23;7.70;;;;;;;;;;5029695;28;20439;-78
2022/07/21 01:31:22;;;;;;;11.07;9.43;;;;;;;;;;5030019;28;20463;-79
2022/07/21 01:33:48;;;;;;;9.30;8.40;;;;;;;;;;5029422;28;20471;-80
2022/07/21 01:36:14;;;;;;;9.70;8.90;;;;;;;;;;5027575;28;20447;-82
2022/07/21 01:41:34;;;;;;;14.70;10.57;;;;;;;;;;5028062;28;20441;-82
2022/07/21 01:44:02;;;;;;;13.23;9.73;;;;;;;;;;5043305;28;20414;-82
2022/07/21 01:46:29;;;;;;;16.13;9.83;;;;;;;;;;5029578;28;20475;-79
2022/07/21 01:48:55;;;;;;;13.93;10.20;;;;;;;;;;5027958;28;20479;-81
2022/07/21 01:51:21;;;;;;;16.47;11.20;;;;;;;;;;5028479;28;20518;-79
2022/07/21 01:53:47;;;;;;;11.77;10.80;;;;;;;;;;5029376;28;20609;-80
2022/07/21 01:56:13;;;;;;;13.67;11.37;;;;;;;;;;5028890;28;20431;-79
2022/07/21 01:58:39;;;;;;;10.90;10.10;;;;;;;;;;5030341;28;20442;-78
2022/07/21 02:01:06;;;;;;;11.10;10.03;;;;;;;;;;5028625;28;20419;-80
2022/07/21 02:03:32;;;;;;;11.80;10.20;;;;;;;;;;5028529;28;20446;-81
2022/07/21 02:06:05;;;;;;;11.20;9.90;;;;;;;;;;5029348;28;20470;-80
2022/07/21 02:08:32;;;;;;;11.60;10.70;;;;;;;;;;5028820;28;20442;-81
2022/07/21 02:10:58;;;;;;;15.13;11.17;;;;;;;;;;5027266;28;20431;-79
2022/07/21 02:13:24;;;;;;;12.60;11.30;;;;;;;;;;5043109;28;20525;-81
2022/07/21 02:15:50;;;;;;;17.10;10.20;;;;;;;;;;5030447;28;20438;-78
2022/07/21 02:18:16;;;;;;;13.70;10.00;;;;;;;;;;5028573;28;20442;-76
2022/07/21 02:20:42;;;;;;;10.80;9.70;;;;;;;;;;5028887;28;20454;-83
2022/07/21 02:23:08;;;;;;;10.83;9.83;;;;;;;;;;5028611;28;20431;-74
2022/07/21 02:25:34;;;;;;;12.87;10.93;;;;;;;;;;5028611;28;20511;-80
2022/07/21 02:28:00;;;;;;;11.83;10.07;;;;;;;;;;5029188;28;20443;-82
2022/07/21 02:30:26;;;;;;;11.80;10.40;;;;;;;;;;5027917;28;20485;-82
2022/07/21 02:32:53;;;;;;;11.33;10.33;;;;;;;;;;5027894;28;20431;-81
2022/07/21 02:35:19;;;;;;;12.43;10.07;;;;;;;;;;5028676;28;21014;-81
2022/07/21 02:37:45;;;;;;;11.33;10.37;;;;;;;;;;5029850;28;20439;-79
2022/07/21 02:40:11;;;;;;;12.03;11.07;;;;;;;;;;5031898;28;20455;-80
2022/07/21 02:42:37;;;;;;;12.13;10.43;;;;;;;;;;5033005;28;20841;-81
2022/07/21 02:45:04;;;;;;;12.30;11.20;;;;;;;;;;5032117;28;20528;-82
2022/07/21 02:47:30;;;;;;;12.97;9.80;;;;;;;;;;5032403;28;20447;-78
2022/07/21 02:49:56;;;;;;;11.43;10.40;;;;;;;;;;5032090;28;20431;-80
2022/07/21 02:52:22;;;;;;;12.17;10.97;;;;;;;;;;5031734;28;20865;-81
2022/07/21 02:54:48;;;;;;;13.10;11.37;;;;;;;;;;5033003;28;21226;-82
2022/07/21 02:57:14;;;;;;;12.73;11.23;;;;;;;;;;5031549;28;20974;-81
2022/07/21 02:59:40;;;;;;;12.53;11.17;;;;;;;;;;5031867;28;20438;-82
2022/07/21 03:02:06;;;;;;;12.13;10.87;;;;;;;;;;5032715;28;20427;-79
2022/07/21 03:04:32;;;;;;;12.87;11.60;;;;;;;;;;5045375;28;20434;-81
2022/07/21 03:06:58;;;;;;;12.50;11.27;;;;;;;;;;5031839;28;21541;-77
2022/07/21 03:09:24;;;;;;;14.30;11.20;;;;;;;;;;5032342;28;20442;-76
2022/07/21 03:11:50;;;;;;;11.53;10.57;;;;;;;;;;5032986;28;20438;-77
2022/07/21 03:14:16;;;;;;;15.47;11.30;;;;;;;;;;5031844;28;20740;-79
2022/07/21 03:16:42;;;;;;;13.37;12.13;;;;;;;;;;5031784;28;20470;-79
2022/07/21 03:19:08;;;;;;;18.83;11.60;;;;;;;;;;5031944;28;20435;-82
2022/07/21 03:21:34;;;;;;;12.60;10.70;;;;;;;;;;5032850;28;20442;-80
2022/07/21 03:24:00;;;;;;;22.80;12.40;;;;;;;;;;5032140;28;20527;-82
2022/07/21 03:26:26;;;;;;;12.47;11.47;;;;;;;;;;5031787;28;20970;-80
2022/07/21 03:28:52;;;;;;;14.20;12.50;;;;;;;;;;5032242;28;20808;-83
2022/07/21 03:31:18;;;;;;;12.03;11.03;;;;;;;;;;5031246;28;20461;-82
2022/07/21 03:33:44;;;;;;;13.37;12.10;;;;;;;;;;5031876;28;21013;-81
2022/07/21 03:36:10;;;;;;;17.30;11.50;;;;;;;;;;5031223;28;20482;-79
2022/07/21 03:38:36;;;;;;;12.50;11.40;;;;;;;;;;5032327;28;20427;-81
2022/07/21 03:41:02;;;;;;;17.00;12.27;;;;;;;;;;5031826;28;20504;-77
2022/07/21 03:43:28;;;;;;;14.00;12.07;;;;;;;;;;5045483;28;20426;-77
2022/07/21 03:45:54;;;;;;;12.17;11.10;;;;;;;;;;5046886;28;20486;-82
2022/07/21 03:48:20;;;;;;;13.00;11.80;;;;;;;;;;5046185;28;20431;-83
2022/07/21 03:50:46;;;;;;;13.73;12.37;;;;;;;;;;5031365;28;20443;-83
2022/07/21 03:53:12;;;;;;;12.73;11.30;;;;;;;;;;5031546;28;20466;-81
2022/07/21 03:55:38;;;;;;;12.13;11.10;;;;;;;;;;5031871;28;20431;-82
2022/07/21 03:58:06;;;;;;;13.80;11.63;;;;;;;;;;5030970;28;20550;-80
2022/07/21 04:00:36;;;;;;;13.20;12.07;;;;;;;;;;5031172;28;20882;-76
2022/07/21 04:03:02;;;;;;;13.77;11.60;;;;;;;;;;5030569;28;20446;-75
2022/07/21 04:05:29;;;;;;;13.17;11.87;;;;;;;;;;5030793;28;20497;-82
2022/07/21 04:07:55;;;;;;;12.20;11.20;;;;;;;;;;5031051;28;20450;-82
2022/07/21 04:10:24;;;;;;;12.97;11.73;;;;;;;;;;5031725;28;20434;-82
2022/07/21 04:12:50;;;;;;;13.07;11.97;;;;;;;;;;5045784;28;20954;-82
2022/07/21 04:15:17;;;;;;;13.63;12.33;;;;;;;;;;5031340;28;20803;-80
2022/07/21 04:17:43;;;;;;;13.10;11.67;;;;;;;;;;5031191;28;20443;-83
2022/07/21 04:20:10;;;;;;;14.00;12.63;;;;;;;;;;5030568;28;20493;-80
2022/07/21 04:22:36;;;;;;;13.73;12.10;;;;;;;;;;5047319;28;20466;-80
2022/07/21 04:25:04;;;;;;;12.87;11.60;;;;;;;;;;5032706;28;20434;-80
2022/07/21 04:27:30;;;;;;;12.60;11.43;;;;;;;;;;5030477;28;20512;-81
2022/07/21 04:29:56;;;;;;;22.10;12.43;;;;;;;;;;5029880;28;20431;-79
2022/07/21 04:32:22;;;;;;;12.87;11.53;;;;;;;;;;5030573;28;20508;-81
2022/07/21 04:34:48;;;;;;;12.80;11.70;;;;;;;;;;5030277;28;20470;-82
2022/07/21 04:37:14;;;;;;;13.30;11.67;;;;;;;;;;5031550;28;20905;-81
2022/07/21 04:39:40;;;;;;;11.67;10.53;;;;;;;;;;5029817;28;20435;-82
2022/07/21 04:42:06;;;;;;;13.30;11.57;;;;;;;;;;5030270;28;20431;-82
2022/07/21 04:44:32;;;;;;;12.73;11.43;;;;;;;;;;5029703;28;20561;-82
2022/07/21 04:46:58;;;;;;;13.70;10.53;;;;;;;;;;5030596;28;20490;-77
2022/07/21 04:49:24;;;;;;;16.07;12.30;;;;;;;;;;5030122;28;20450;-81
2022/07/21 04:51:50;;;;;;;14.50;12.17;;;;;;;;;;5028862;28;20447;-81
2022/07/21 04:54:16;;;;;;;12.90;11.33;;;;;;;;;;5027723;28;21008;-81
2022/07/21 04:56:42;;;;;;;13.33;12.20;;;;;;;;;;5031015;28;20442;-78
2022/07/21 04:59:09;;;;;;;12.07;10.87;;;;;;;;;;5030583;28;20423;-81
2022/07/21 05:01:35;;;;;;;17.77;11.87;;;;;;;;;;5029828;28;21017;-79
2022/07/21 05:04:01;;;;;;;14.53;13.00;;;;;;;;;;5027753;28;20501;-82
2022/07/21 05:06:27;;;;;;;13.97;12.23;;;;;;;;;;5045440;28;20483;-82
2022/07/21 05:08:53;;;;;;;12.13;11.00;;;;;;;;;;5030394;28;20935;-79
2022/07/21 05:11:19;;;;;;;12.77;11.70;;;;;;;;;;5030484;28;20442;-82
2022/07/21 05:13:45;;;;;;;12.50;11.20;;;;;;;;;;5030077;28;20845;-81
2022/07/21 05:16:11;;;;;;;18.43;11.13;;;;;;;;;;5029722;28;20449;-82
2022/07/21 05:18:37;;;;;;;14.77;12.87;;;;;;;;;;5028279;28;20435;-81
2022/07/21 05:21:03;;;;;;;15.87;11.40;;;;;;;;;;5046767;28;20485;-82
2022/07/21 05:23:29;;;;;;;13.03;11.77;;;;;;;;;;5030591;28;20438;-82
2022/07/21 05:25:55;;;;;;;12.90;11.57;;;;;;;;;;5027067;28;20475;-81
2022/07/21 05:28:21;;;;;;;12.67;11.40;;;;;;;;;;5026182;28;20923;-81
2022/07/21 05:30:47;;;;;;;14.43;12.87;;;;;;;;;;5029029;28;20450;-82
2022/07/21 05:33:13;;;;;;;13.43;12.10;;;;;;;;;;5043731;28;20469;-81
2022/07/21 05:35:39;;;;;;;17.23;12.13;;;;;;;;;;5028790;28;20493;-82
2022/07/21 05:38:05;;;;;;;12.03;10.53;;;;;;;;;;5029930;28;20478;-82
2022/07/21 05:40:31;;;;;;;13.50;11.77;;;;;;;;;;5043228;28;20509;-82
2022/07/21 05:42:57;;;;;;;11.90;10.90;;;;;;;;;;5028685;28;20569;-80
2022/07/21 05:45:23;;;;;;;13.50;10.63;;;;;;;;;;5027473;28;20514;-81
2022/07/21 05:47:49;;;;;;;16.67;11.37;;;;;;;;;;5041316;28;20438;-79
2022/07/21 05:50:15;;;;;;;12.63;11.50;;;;;;;;;;5025448;28;20447;-73
2022/07/21 05:52:41;;;;;;;13.83;11.97;;;;;;;;;;5028953;28;20188;-83
2022/07/21 05:55:08;;;;;;;13.43;11.90;;;;;;;;;;5028526;28;20977;-80
2022/07/21 05:57:34;;;;;;;13.00;11.90;;;;;;;;;;5030185;28;20432;-86
2022/07/21 06:00:00;;;;;;;13.40;12.00;;;;;;;;;;5029208;28;20463;-80
2022/07/21 06:02:30;;;;;;;12.47;11.27;;;;;;;;;;5028068;28;20915;-83
2022/07/21 06:04:56;;;;;;;14.70;11.33;;;;;;;;;;5044197;28;20432;-77
2022/07/21 06:07:22;;;;;;;19.57;11.70;;;;;;;;;;5029395;28;20842;-72
2022/07/21 06:09:48;;;;;;;21.13;11.83;;;;;;;;;;5029171;28;20438;-73
2022/07/21 06:12:14;;;;;;;19.87;12.60;;;;;;;;;;5027771;28;20189;-73
2022/07/21 06:14:40;;;;;;;12.37;11.27;;;;;;;;;;5029320;28;20987;-76
2022/07/21 06:17:06;;;;;;;17.90;12.90;;;;;;;;;;5028927;28;20427;-74
2022/07/21 06:19:32;;;;;;;16.93;12.67;;;;;;;;;;5027674;28;20450;-73
2022/07/21 06:21:58;;;;;;;21.87;13.83;;;;;;;;;;5029022;28;20509;-78
2022/07/21 06:24:26;;;;;;;15.07;13.73;;;;;;;;;;5029192;28;20423;-73
2022/07/21 06:26:55;;;;;;;15.67;14.27;;;;;;;;;;5028690;28;20487;-74
2022/07/21 06:29:21;;;;;;;19.10;12.90;;;;;;;;;;5028449;28;20432;-73
2022/07/21 06:31:47;;;;;;;17.57;13.50;;;;;;;;;;5028465;28;20780;-73
2022/07/21 06:34:13;;;;;;;13.53;12.43;;;;;;;;;;5027494;28;21136;-72
2022/07/21 06:36:39;;;;;;;13.43;12.20;;;;;;;;;;5027817;28;20442;-72
2022/07/21 06:39:05;;;;;;;15.10;13.10;;;;;;;;;;5027691;28;20330;-72
2022/07/21 06:41:31;;;;;;;17.17;14.33;;;;;;;;;;5029018;28;20431;-72
2022/07/21 06:43:57;;;;;;;15.40;13.90;;;;;;;;;;5045387;28;20938;-73
2022/07/21 06:46:23;;;;;;;14.93;13.37;;;;;;;;;;5028997;28;20652;-73
2022/07/21 06:48:49;;;;;;;23.90;14.60;;;;;;;;;;5027860;28;20438;-74
2022/07/21 06:51:15;;;;;;;14.77;13.00;;;;;;;;;;5028998;28;20435;-75
2022/07/21 06:53:42;;;;;;;16.70;14.50;;;;;;;;;;5027369;28;20505;-72
2022/07/21 06:56:08;;;;;;;13.40;12.23;;;;;;;;;;5043268;28;20287;-72
2022/07/21 06:58:35;;;;;;;14.20;12.77;;;;;;;;;;5028401;28;20518;-73
2022/07/21 07:01:01;;;;;;;15.60;13.10;;;;;;;;;;5028557;28;20530;-73
2022/07/21 07:03:27;;;;;;;13.47;12.07;;;;;;;;;;5027859;28;20476;-72
2022/07/21 07:05:53;;;;;;;13.33;11.33;;;;;;;;;;5027861;28;20470;-72
2022/07/21 07:08:19;;;;;;;12.07;11.00;;;;;;;;;;5042378;28;20856;-75
2022/07/21 07:10:48;;;;;;;13.40;11.60;;;;;;;;;;5028344;28;20426;-73
2022/07/21 07:13:15;;;;;;;13.80;12.27;;;;;;;;;;5027582;28;20469;-72
2022/07/21 07:15:41;;;;;;;12.57;11.27;;;;;;;;;;5026892;28;20442;-72
2022/07/21 07:18:07;;;;;;;13.17;12.10;;;;;;;;;;5027287;28;20923;-74
2022/07/21 07:20:33;;;;;;;15.40;12.10;;;;;;;;;;5027785;28;20430;-72
2022/07/21 07:22:59;;;;;;;12.67;11.63;;;;;;;;;;5027808;28;20443;-73
2022/07/21 07:25:25;;;;;;;13.33;12.27;;;;;;;;;;5031516;28;20442;-72
2022/07/21 07:27:52;;;;;;;14.47;12.97;;;;;;;;;;5031990;28;20443;-72
2022/07/21 07:30:18;;;;;;;16.90;12.47;;;;;;;;;;5031702;28;20541;-73
2022/07/21 07:32:46;;;;;;;16.73;14.90;;;;;;;;;;5029582;28;20439;-72
2022/07/21 07:35:12;;;;;;;12.13;10.93;;;;;;;;;;5031583;28;20442;-72
2022/07/21 07:37:40;;;;;;;12.40;11.30;;;;;;;;;;5030936;28;20740;-72
2022/07/21 07:40:07;;;;;;;14.13;11.33;;;;;;;;;;5031853;28;20509;-72
2022/07/21 07:42:33;;;;;;;10.80;9.70;;;;;;;;;;5031488;28;20443;-72
2022/07/21 07:44:59;;;;;;;11.03;9.87;;;;;;;;;;5032735;28;20502;-72
2022/07/21 07:47:25;;;;;;;9.00;8.30;;;;;;;;;;5029279;28;20629;-73
2022/07/21 07:49:52;;;;;;;10.03;9.13;;;;;;;;;;5028351;28;20768;-73
2022/07/21 07:52:18;;;;;;;15.70;9.93;;;;;;;;;;5031949;28;20450;-73
2022/07/21 07:54:44;;;;;;;10.27;9.50;;;;;;;;;;5027060;28;20502;-74
2022/07/21 07:57:10;;;;;;;13.33;10.00;;;;;;;;;;5030317;28;20462;-75
2022/07/21 07:59:36;;;;;;;10.97;9.80;;;;;;;;;;5031822;28;20416;-73
2022/07/21 08:02:02;;;;;;;14.37;9.73;;;;;;;;;;5028809;28;21073;-72
2022/07/21 08:04:28;;;;;;;14.57;9.00;;;;;;;;;;5031565;28;20193;-73
2022/07/21 08:06:54;;;;;;;9.03;8.13;;;;;;;;;;5030987;28;20487;-73
2022/07/21 08:09:20;;;;;;;7.77;7.20;;;;;;;;;;5031202;28;20323;-80
2022/07/21 08:11:47;;;;;;;8.47;7.70;;;;;;;;;;5031527;28;20436;-79
2022/07/21 08:14:14;;;;;;;8.20;7.50;;;;;;;;;;5030661;28;20481;-81
2022/07/21 08:16:40;;;;;;;6.67;6.27;;;;;;;;;;5029281;28;20454;-84
2022/07/21 08:19:06;;;;;;;7.00;6.50;;;;;;;;;;5029931;28;20505;-80
2022/07/21 08:21:33;;;;;;;6.50;6.10;;;;;;;;;;5027065;28;20445;-82
2022/07/21 08:23:59;;;;;;;6.57;6.00;;;;;;;;;;5030070;28;20435;-82
2022/07/21 08:26:25;;;;;;;7.43;6.73;;;;;;;;;;5029956;28;20505;-73
2022/07/21 08:28:52;;;;;;;5.77;5.37;;;;;;;;;;5029985;28;20442;-72
2022/07/21 08:31:18;;;;;;;6.23;5.73;;;;;;;;;;5030929;28;20184;-73
2022/07/21 08:33:43;;;;;;;6.90;6.13;;;;;;;;;;5028779;28;20426;-81
2022/07/21 08:36:10;;;;;;;5.80;5.13;;;;;;;;;;5027667;28;20281;-83
2022/07/21 08:38:36;;;;;;;4.17;3.97;;;;;;;;;;5030939;28;20481;-79
2022/07/21 08:41:02;;;;;;;4.83;4.43;;;;;;;;;;5029659;28;20842;-81
2022/07/21 08:43:29;;;;;;;6.50;6.00;;;;;;;;;;5030635;28;20424;-74
2022/07/21 08:45:55;;;;;;;6.17;5.87;;;;;;;;;;5030066;28;20637;-72
2022/07/21 08:48:24;;;;;;;6.33;5.73;;;;;;;;;;5028552;28;20438;-82
2022/07/21 08:50:50;;;;;;;6.40;6.10;;;;;;;;;;5028908;28;20445;-79
2022/07/21 08:53:16;;;;;;;7.57;6.70;;;;;;;;;;5029521;28;20538;-77
2022/07/21 08:55:42;;;;;;;5.87;5.47;;;;;;;;;;5030595;28;20439;-81
2022/07/21 08:58:09;;;;;;;5.60;5.23;;;;;;;;;;5030925;28;20458;-83
2022/07/21 09:00:36;;;;;;;5.93;5.50;;;;;;;;;;5029997;28;20951;-80
2022/07/21 09:03:12;;;;;;;5.70;5.20;;;;;;;;;;5023391;28;20514;-82
2022/07/21 09:05:38;;;;;;;6.23;4.83;;;;;;;;;;5029563;28;20833;-79
2022/07/21 09:08:04;;;;;;;6.07;5.57;;;;;;;;;;5030489;28;20424;-83
2022/07/21 09:10:31;;;;;;;4.93;4.67;;;;;;;;;;5029584;28;20435;-82
2022/07/21 09:13:01;;;;;;;13.57;5.50;;;;;;;;;;5029190;28;20447;-82
2022/07/21 09:15:28;;;;;;;5.30;4.80;;;;;;;;;;5029949;28;20419;-80
2022/07/21 09:18:23;;;;;;;5.13;4.63;;;;;;;;;;5028667;28;20488;-79
2022/07/21 09:20:53;;;;;;;10.17;4.60;;;;;;;;;;5027921;28;20465;-83
2022/07/21 09:23:21;;;;;;;8.30;4.23;;;;;;;;;;5029768;28;20462;-76
2022/07/21 09:25:48;;;;;;;5.50;5.00;;;;;;;;;;5029022;28;20458;-74
2022/07/21 09:28:14;;;;;;;5.17;4.87;;;;;;;;;;5029182;28;20450;-76
2022/07/21 09:30:54;;;;;;;5.20;4.90;;;;;;;;;;5027826;28;20527;-80
2022/07/21 09:33:22;;;;;;;5.93;5.07;;;;;;;;;;5027730;28;20922;-83
2022/07/21 09:36:08;;;;;;;5.07;4.60;;;;;;;;;;5025762;28;20493;-82
2022/07/21 09:38:36;;;;;;;5.53;5.13;;;;;;;;;;5026096;28;20985;-80
2022/07/21 09:41:05;;;;;;;4.57;4.47;;;;;;;;;;5029880;28;20436;-83
2022/07/21 09:43:42;;;;;;;4.93;4.73;;;;;;;;;;5029893;28;20931;-81
2022/07/21 09:46:12;;;;;;;5.50;4.50;;;;;;;;;;5029552;28;20510;-77
2022/07/21 09:48:39;;;;;;;5.60;5.03;;;;;;;;;;5029466;28;20411;-79
2022/07/21 09:51:24;;;;;;;5.07;4.77;;;;;;;;;;5029619;28;20443;-83
2022/07/21 09:53:51;;;;;;;5.20;4.90;;;;;;;;;;5029676;28;20466;-82
2022/07/21 09:56:18;;;;;;;5.37;4.97;;;;;;;;;;5027938;28;20445;-81
2022/07/21 09:58:47;;;;;;;7.20;5.47;;;;;;;;;;5029723;28;20435;-83
2022/07/21 10:01:13;;;;;;;5.47;5.17;;;;;;;;;;5029171;28;20437;-81
2022/07/21 10:03:39;;;;;;;6.03;5.30;;;;;;;;;;5028902;28;20458;-81
2022/07/21 10:06:06;;;;;;;5.07;4.57;;;;;;;;;;5028402;28;20564;-81
2022/07/21 10:08:33;;;;;;;4.93;4.73;;;;;;;;;;5026403;28;20443;-68
2022/07/21 10:10:59;;;;;;;5.17;4.50;;;;;;;;;;5027291;28;20439;-67
2022/07/21 10:13:27;;;;;;;4.30;4.20;;;;;;;;;;5021949;28;20529;-67
2022/07/21 10:15:54;;;;;;;4.77;4.33;;;;;;;;;;5029359;28;20419;-67
2022/07/21 10:18:20;;;;;;;4.80;4.50;;;;;;;;;;5028469;28;20424;-67
2022/07/21 10:20:49;;;;;;;4.20;4.00;;;;;;;;;;5027987;28;20530;-67
2022/07/21 10:23:18;;;;;;;5.77;5.17;;;;;;;;;;5027458;28;20447;-67
2022/07/21 10:25:46;;;;;;;4.47;4.00;;;;;;;;;;5028036;28;20497;-67
2022/07/21 10:28:12;;;;;;;4.50;4.30;;;;;;;;;;5028521;28;20467;-68
2022/07/21 10:30:42;;;;;;;4.77;4.47;;;;;;;;;;5029163;28;20974;-68
2022/07/21 10:33:09;;;;;;;4.40;4.20;;;;;;;;;;5027766;28;20438;-67
2022/07/21 10:35:35;;;;;;;3.93;3.83;;;;;;;;;;5028555;28;20526;-67
2022/07/21 10:38:04;;;;;;;5.40;3.50;;;;;;;;;;5028280;28;20443;-68
2022/07/21 10:40:34;;;;;;;4.47;3.97;;;;;;;;;;5028490;28;20474;-67
2022/07/21 10:43:00;;;;;;;6.10;3.37;;;;;;;;;;5028396;28;20434;-68
2022/07/21 10:45:36;;;;;;;3.53;3.43;;;;;;;;;;5027932;28;20407;-67
2022/07/21 10:48:03;;;;;;;2.93;2.87;;;;;;;;;;5028091;28;20192;-69
2022/07/21 10:50:34;;;;;;;3.43;3.07;;;;;;;;;;5027258;28;20439;-82
2022/07/21 10:53:01;;;;;;;3.20;2.93;;;;;;;;;;5028076;28;20466;-82
2022/07/21 10:55:28;;;;;;;4.83;3.60;;;;;;;;;;5029370;28;20423;-83
2022/07/21 10:58:13;;;;;;;4.00;3.73;;;;;;;;;;5029070;28;20449;-83
2022/07/21 11:00:40;;;;;;;3.33;3.23;;;;;;;;;;5033229;28;20426;-78
2022/07/21 11:03:14;;;;;;;3.47;3.17;;;;;;;;;;5031846;28;20431;-83
2022/07/21 11:06:00;;;;;;;3.83;3.27;;;;;;;;;;5032977;28;20775;-80
2022/07/21 11:08:33;;;;;;;2.50;2.40;;;;;;;;;;5032311;28;20458;-80
2022/07/21 11:11:09;;;;;;;3.30;3.10;;;;;;;;;;5033077;28;20423;-79
2022/07/21 11:13:53;;;;;;;2.87;2.77;;;;;;;;;;5032863;28;20427;-76
2022/07/21 11:16:19;;;;;;;7.40;3.30;;;;;;;;;;5031908;28;20521;-81
2022/07/21 11:18:45;;;;;;;2.87;2.77;;;;;;;;;;5032162;28;21038;-80
2022/07/21 11:21:13;;;;;;;3.50;3.30;;;;;;;;;;5028434;28;20443;-80
2022/07/21 11:23:46;;;;;;;2.80;2.70;;;;;;;;;;5031752;28;20506;-83
2022/07/21 11:26:13;;;;;;;4.07;2.60;;;;;;;;;;5032163;28;20569;-82
2022/07/21 11:28:39;;;;;;;2.40;2.30;;;;;;;;;;5031242;28;20504;-84
2022/07/21 11:31:16;;;;;;;2.57;2.57;;;;;;;;;;5031989;28;20451;-82
2022/07/21 11:33:44;;;;;;;2.47;2.33;;;;;;;;;;5031036;28;20437;-80
2022/07/21 11:36:10;;;;;;;2.53;2.40;;;;;;;;;;5031739;28;20792;-84
2022/07/21 11:38:36;;;;;;;2.97;2.77;;;;;;;;;;5031957;28;20878;-83
2022/07/21 11:41:28;;;;;;;2.80;2.70;;;;;;;;;;5031557;28;20470;-81
2022/07/21 11:43:54;;;;;;;3.70;2.90;;;;;;;;;;5030729;28;20493;-82
2022/07/21 11:46:20;;;;;;;2.70;2.60;;;;;;;;;;5030111;28;20486;-83
2022/07/21 11:48:46;;;;;;;2.70;2.60;;;;;;;;;;5031564;28;20439;-81
2022/07/21 11:51:12;;;;;;;3.27;3.13;;;;;;;;;;5031494;28;20441;-81
2022/07/21 11:53:45;;;;;;;3.47;3.17;;;;;;;;;;5029521;28;20485;-83
2022/07/21 11:56:15;;;;;;;4.50;3.17;;;;;;;;;;5032063;28;20415;-82
2022/07/21 11:58:41;;;;;;;3.73;3.10;;;;;;;;;;5031211;28;20760;-84
2022/07/21 12:01:08;;;;;;;2.87;2.67;;;;;;;;;;5030741;28;20439;-83
2022/07/21 12:03:34;;;;;;;2.60;2.50;;;;;;;;;;5031354;28;20415;-80
2022/07/21 12:06:01;;;;;;;3.00;2.70;;;;;;;;;;5030091;28;20995;-80
2022/07/21 12:08:28;;;;;;;3.43;3.10;;;;;;;;;;5029327;28;20430;-75
2022/07/21 12:11:07;;;;;;;3.37;2.73;;;;;;;;;;5028780;28;20760;-85
2022/07/21 12:13:52;;;;;;;10.70;3.23;;;;;;;;;;5030833;28;20431;-84
2022/07/21 12:16:18;;;;;;;3.70;2.83;;;;;;;;;;5031454;28;20476;-82
2022/07/21 12:18:44;;;;;;;3.53;2.50;;;;;;;;;;5030309;28;20435;-81
2022/07/21 12:21:10;;;;;;;2.57;2.47;;;;;;;;;;5031655;28;20620;-83
2022/07/21 12:23:36;;;;;;;3.30;3.00;;;;;;;;;;5031069;28;20526;-83
2022/07/21 12:26:02;;;;;;;2.53;2.43;;;;;;;;;;5031161;28;20557;-83
2022/07/21 12:28:46;;;;;;;3.20;3.10;;;;;;;;;;5030153;28;21039;-83
2022/07/21 12:31:14;;;;;;;2.10;2.10;;;;;;;;;;5030814;28;20431;-83
2022/07/21 12:33:41;;;;;;;2.90;2.80;;;;;;;;;;5031675;28;20471;-81
2022/07/21 12:36:07;;;;;;;3.00;2.80;;;;;;;;;;5030313;28;20438;-81
2022/07/21 12:38:47;;;;;;;2.70;2.60;;;;;;;;;;5030776;28;20439;-79
2022/07/21 12:41:14;;;;;;;2.53;2.43;;;;;;;;;;5030733;28;20811;-81
2022/07/21 12:43:40;;;;;;;4.70;4.40;;;;;;;;;;5031144;28;20450;-80
2022/07/21 12:46:11;;;;;;;2.97;2.70;;;;;;;;;;5030105;28;20483;-80
2022/07/21 12:48:38;;;;;;;2.37;2.17;;;;;;;;;;5030730;28;20485;-81
2022/07/21 12:51:04;;;;;;;2.50;2.50;;;;;;;;;;5028925;28;20486;-80
2022/07/21 12:53:30;;;;;;;3.37;3.07;;;;;;;;;;5029013;28;20487;-80
2022/07/21 12:55:56;;;;;;;2.53;2.43;;;;;;;;;;5031026;28;20473;-80
2022/07/21 12:58:22;;;;;;;2.37;2.27;;;;;;;;;;5031640;28;20442;-83
2022/07/21 13:00:49;;;;;;;3.27;2.13;;;;;;;;;;5030533;28;20491;-82
2022/07/21 13:03:15;;;;;;;2.67;2.47;;;;;;;;;;5029956;28;20427;-77
2022/07/21 13:05:41;;;;;;;3.83;3.63;;;;;;;;;;5030444;28;20485;-81
2022/07/21 13:08:07;;;;;;;2.93;2.67;;;;;;;;;;5030261;28;20438;-79
2022/07/21 13:10:33;;;;;;;2.57;2.50;;;;;;;;;;5029616;28;20423;-79
2022/07/21 13:12:59;;;;;;;3.17;2.97;;;;;;;;;;5028921;28;21013;-82
2022/07/21 13:15:25;;;;;;;3.00;2.87;;;;;;;;;;5030341;28;20435;-82
2022/07/21 13:17:51;;;;;;;3.60;3.13;;;;;;;;;;5027977;28;20951;-81
2022/07/21 13:20:17;;;;;;;3.10;3.00;;;;;;;;;;5031352;28;20467;-80
2022/07/21 13:22:43;;;;;;;3.37;3.07;;;;;;;;;;5032634;28;20191;-78
2022/07/21 13:25:10;;;;;;;3.80;2.53;;;;;;;;;;5030539;28;20817;-84
2022/07/21 13:27:37;;;;;;;3.03;2.87;;;;;;;;;;5029992;28;20990;-83
2022/07/21 13:30:07;;;;;;;4.37;2.80;;;;;;;;;;5028451;28;20431;-79
2022/07/21 13:32:34;;;;;;;2.43;2.43;;;;;;;;;;5028098;28;21006;-79
2022/07/21 13:35:00;;;;;;;3.20;3.07;;;;;;;;;;5029726;28;20515;-75
2022/07/21 13:37:26;;;;;;;6.80;2.43;;;;;;;;;;5030592;28;20522;-81
2022/07/21 13:39:52;;;;;;;2.43;2.33;;;;;;;;;;5029424;28;20908;-83
2022/07/21 13:42:18;;;;;;;3.03;2.93;;;;;;;;;;5029745;28;20564;-83
2022/07/21 13:44:44;;;;;;;3.87;3.10;;;;;;;;;;5030404;28;20418;-81
2022/07/21 13:47:10;;;;;;;2.47;2.37;;;;;;;;;;5029477;28;20552;-79
2022/07/21 13:49:36;;;;;;;2.43;2.33;;;;;;;;;;5025020;28;20789;-80
2022/07/21 13:52:02;;;;;;;2.80;2.70;;;;;;;;;;5026923;28;20502;-74
2022/07/21 13:54:28;;;;;;;3.13;2.83;;;;;;;;;;5029067;28;20470;-78
2022/07/21 13:56:56;;;;;;;4.93;2.30;;;;;;;;;;5028611;28;20537;-73
2022/07/21 13:59:22;;;;;;;2.40;2.40;;;;;;;;;;5027517;28;20446;-77
2022/07/21 14:01:48;;;;;;;2.90;2.70;;;;;;;;;;5028839;28;20435;-79
2022/07/21 14:04:14;;;;;;;3.47;2.87;;;;;;;;;;5026830;28;20444;-80
2022/07/21 14:06:40;;;;;;;3.20;3.10;;;;;;;;;;5027391;28;20852;-79
2022/07/21 14:09:06;;;;;;;2.67;2.57;;;;;;;;;;5028979;28;20950;-79
2022/07/21 14:11:32;;;;;;;2.30;2.17;;;;;;;;;;5028407;28;20904;-80
2022/07/21 14:13:58;;;;;;;2.70;2.50;;;;;;;;;;5028386;28;20779;-82
2022/07/21 14:16:24;;;;;;;3.57;2.70;;;;;;;;;;5028539;28;20923;-74
2022/07/21 14:18:50;;;;;;;7.10;6.50;;;;;;;;;;5028811;28;20526;-79
2022/07/21 14:21:16;;;;;;;3.13;3.10;;;;;;;;;;5028961;28;20423;-82
2022/07/21 14:23:42;;;;;;;4.33;3.43;;;;;;;;;;5028558;28;20199;-83
2022/07/21 14:26:07;;;;;;;2.73;2.70;;;;;;;;;;5027086;28;20227;-84
2022/07/21 14:28:33;;;;;;;7.33;3.30;;;;;;;;;;5027858;28;20471;-83
2022/07/21 14:31:00;;;;;;;3.17;2.97;;;;;;;;;;5027681;28;20927;-83
2022/07/21 14:33:26;;;;;;;3.20;3.00;;;;;;;;;;5025927;28;20443;-83